createdAt,value
2023-05-10T00:00:30.201Z,13.43
2023-05-10T00:01:30.289Z,13.42
2023-05-10T00:02:30.316Z,13.42
2023-05-10T00:03:30.180Z,13.43
2023-05-10T00:04:30.176Z,13.46
2023-05-10T00:05:30.181Z,13.45
2023-05-10T00:06:30.146Z,13.45
2023-05-10T00:07:30.177Z,13.43
2023-05-10T00:08:30.125Z,13.43
2023-05-10T00:09:30.144Z,13.45
2023-05-10T00:10:30.144Z,13.42
2023-05-10T00:11:30.130Z,13.40
2023-05-10T00:12:30.113Z,13.42
2023-05-10T00:13:30.222Z,13.39
2023-05-10T00:14:30.059Z,13.39
2023-05-10T00:15:30.044Z,13.39
2023-05-10T00:16:30.086Z,13.42
2023-05-10T00:17:30.498Z,13.42
2023-05-10T00:18:30.064Z,13.39
2023-05-10T00:19:30.062Z,13.38
2023-05-10T00:20:30.157Z,13.36
2023-05-10T00:21:29.978Z,13.35
2023-05-10T00:22:30.025Z,13.36
2023-05-10T00:23:29.960Z,13.36
2023-05-10T00:24:29.952Z,13.35
2023-05-10T00:25:29.943Z,13.35
2023-05-10T00:26:29.936Z,13.32
2023-05-10T00:27:29.963Z,13.35
2023-05-10T00:28:29.929Z,13.29
2023-05-10T00:29:29.905Z,13.27
2023-05-10T00:30:29.914Z,13.27
2023-05-10T00:31:29.915Z,13.26
2023-05-10T00:32:29.875Z,13.24
2023-05-10T00:33:29.883Z,13.21
2023-05-10T00:34:29.876Z,13.21
2023-05-10T00:35:29.838Z,13.21
2023-05-10T00:36:29.822Z,13.19
2023-05-10T00:37:29.824Z,13.17
2023-05-10T00:38:29.799Z,13.16
2023-05-10T00:39:29.791Z,13.16
2023-05-10T00:40:29.846Z,13.14
2023-05-10T00:41:29.782Z,13.13
2023-05-10T00:42:29.828Z,13.11
2023-05-10T00:43:29.767Z,13.08
2023-05-10T00:44:29.732Z,13.06
2023-05-10T00:45:29.708Z,13.06
2023-05-10T00:46:29.823Z,13.08
2023-05-10T00:47:29.773Z,13.05
2023-05-10T00:48:29.791Z,13.02
2023-05-10T00:49:29.699Z,13.01
2023-05-10T00:50:29.787Z,13.01
2023-05-10T00:51:29.631Z,12.99
2023-05-10T00:52:29.625Z,13.01
2023-05-10T00:53:29.733Z,12.99
2023-05-10T00:54:29.641Z,12.95
2023-05-10T00:55:29.718Z,12.95
2023-05-10T00:56:29.676Z,12.96
2023-05-10T00:57:29.637Z,12.95
2023-05-10T00:58:29.648Z,12.98
2023-05-10T00:59:29.703Z,12.98
2023-05-10T01:00:29.639Z,12.93
2023-05-10T01:01:29.684Z,12.91
2023-05-10T01:02:29.685Z,12.90
2023-05-10T01:03:29.566Z,12.88
2023-05-10T01:04:29.583Z,12.86
2023-05-10T01:05:30.338Z,12.86
2023-05-10T01:06:29.515Z,12.87
2023-05-10T01:07:29.483Z,12.86
2023-05-10T01:08:29.493Z,12.83
2023-05-10T01:09:29.470Z,12.81
2023-05-10T01:10:29.472Z,12.80
2023-05-10T01:11:29.536Z,12.77
2023-05-10T01:12:29.562Z,12.77
2023-05-10T01:13:29.604Z,12.77
2023-05-10T01:14:29.439Z,12.76
2023-05-10T01:15:29.407Z,12.72
2023-05-10T01:16:29.556Z,12.71
2023-05-10T01:17:29.423Z,12.71
2023-05-10T01:18:29.403Z,12.69
2023-05-10T01:19:29.383Z,12.69
2023-05-10T01:20:29.380Z,12.71
2023-05-10T01:21:29.367Z,12.68
2023-05-10T01:22:29.332Z,12.69
2023-05-10T01:23:29.361Z,12.68
2023-05-10T01:24:29.304Z,12.66
2023-05-10T01:25:29.316Z,12.65
2023-05-10T01:26:29.302Z,12.66
2023-05-10T01:27:29.273Z,12.69
2023-05-10T01:28:29.327Z,12.63
2023-05-10T01:29:29.264Z,12.63
2023-05-10T01:30:29.249Z,12.62
2023-05-10T01:31:29.387Z,12.63
2023-05-10T01:32:29.296Z,12.58
2023-05-10T01:33:29.250Z,12.61
2023-05-10T01:34:29.232Z,12.58
2023-05-10T01:35:29.203Z,12.55
2023-05-10T01:36:29.256Z,12.58
2023-05-10T01:37:29.169Z,12.62
2023-05-10T01:38:29.159Z,12.59
2023-05-10T01:39:29.180Z,12.59
2023-05-10T01:40:29.153Z,12.61
2023-05-10T01:41:29.178Z,12.55
2023-05-10T01:42:29.126Z,12.50
2023-05-10T01:43:29.150Z,12.51
2023-05-10T01:44:29.105Z,12.51
2023-05-10T01:45:29.089Z,12.50
2023-05-10T01:46:29.105Z,12.47
2023-05-10T01:47:29.090Z,12.48
2023-05-10T01:48:29.043Z,12.50
2023-05-10T01:49:29.082Z,12.51
2023-05-10T01:50:29.050Z,12.47
2023-05-10T01:51:29.022Z,12.44
2023-05-10T01:52:29.025Z,12.46
2023-05-10T01:53:29.016Z,12.46
2023-05-10T01:54:29.012Z,12.48
2023-05-10T01:55:29.016Z,12.48
2023-05-10T01:56:28.994Z,12.43
2023-05-10T01:57:29.004Z,12.44
2023-05-10T01:58:28.918Z,12.44
2023-05-10T01:59:29.013Z,12.44
2023-05-10T02:00:28.935Z,12.46
2023-05-10T02:01:28.947Z,12.44
2023-05-10T02:02:28.969Z,12.43
2023-05-10T02:03:29.002Z,12.44
2023-05-10T02:04:28.870Z,12.44
2023-05-10T02:05:28.871Z,12.43
2023-05-10T02:06:28.879Z,12.43
2023-05-10T02:07:28.877Z,12.43
2023-05-10T02:08:28.855Z,12.41
2023-05-10T02:09:28.857Z,12.40
2023-05-10T02:10:28.846Z,12.40
2023-05-10T02:11:28.786Z,12.38
2023-05-10T02:12:28.895Z,12.36
2023-05-10T02:13:28.860Z,12.40
2023-05-10T02:14:28.779Z,12.38
2023-05-10T02:15:28.819Z,12.36
2023-05-10T02:16:28.838Z,12.36
2023-05-10T02:17:28.819Z,12.35
2023-05-10T02:18:28.765Z,12.36
2023-05-10T02:19:28.769Z,12.35
2023-05-10T02:20:28.739Z,12.36
2023-05-10T02:21:28.706Z,12.36
2023-05-10T02:22:28.712Z,12.35
2023-05-10T02:23:28.683Z,12.36
2023-05-10T02:24:28.684Z,12.35
2023-05-10T02:25:28.691Z,12.33
2023-05-10T02:26:28.684Z,12.33
2023-05-10T02:27:28.654Z,12.35
2023-05-10T02:28:28.654Z,12.32
2023-05-10T02:29:28.628Z,12.30
2023-05-10T02:30:28.663Z,12.33
2023-05-10T02:31:28.629Z,12.32
2023-05-10T02:32:28.660Z,12.32
2023-05-10T02:33:28.608Z,12.32
2023-05-10T02:34:28.552Z,12.32
2023-05-10T02:35:28.633Z,12.30
2023-05-10T02:36:28.544Z,12.33
2023-05-10T02:37:28.556Z,12.30
2023-05-10T02:38:28.574Z,12.28
2023-05-10T02:39:28.569Z,12.29
2023-05-10T02:40:28.926Z,12.29
2023-05-10T02:41:28.492Z,12.28
2023-05-10T02:42:28.477Z,12.29
2023-05-10T02:43:28.539Z,12.28
2023-05-10T02:44:28.489Z,12.28
2023-05-10T02:45:28.554Z,12.28
2023-05-10T02:46:28.506Z,12.26
2023-05-10T02:47:28.442Z,12.26
2023-05-10T02:48:28.439Z,12.30
2023-05-10T02:49:28.424Z,12.29
2023-05-10T02:50:28.454Z,12.29
2023-05-10T02:51:28.394Z,12.25
2023-05-10T02:52:28.362Z,12.28
2023-05-10T02:53:28.430Z,12.28
2023-05-10T02:54:28.394Z,12.26
2023-05-10T02:55:28.387Z,12.25
2023-05-10T02:56:28.385Z,12.25
2023-05-10T02:57:28.331Z,12.23
2023-05-10T02:58:28.305Z,12.25
2023-05-10T02:59:28.306Z,12.25
2023-05-10T03:00:28.306Z,12.23
2023-05-10T03:01:28.336Z,12.23
2023-05-10T03:02:28.320Z,12.23
2023-05-10T03:03:28.277Z,12.23
2023-05-10T03:04:28.298Z,12.23
2023-05-10T03:05:28.241Z,12.22
2023-05-10T03:06:28.252Z,12.23
2023-05-10T03:07:28.225Z,12.22
2023-05-10T03:08:28.230Z,12.25
2023-05-10T03:09:28.208Z,12.22
2023-05-10T03:10:28.171Z,12.21
2023-05-10T03:11:28.238Z,12.21
2023-05-10T03:12:28.167Z,12.21
2023-05-10T03:13:28.249Z,12.18
2023-05-10T03:14:28.131Z,12.18
2023-05-10T03:15:28.158Z,12.18
2023-05-10T03:16:28.312Z,12.15
2023-05-10T03:17:28.140Z,12.17
2023-05-10T03:18:28.066Z,12.17
2023-05-10T03:19:28.031Z,12.15
2023-05-10T03:20:28.023Z,12.17
2023-05-10T03:21:28.051Z,12.18
2023-05-10T03:22:28.043Z,12.15
2023-05-10T03:23:28.006Z,12.13
2023-05-10T03:24:28.126Z,12.17
2023-05-10T03:25:27.967Z,12.15
2023-05-10T03:26:27.983Z,12.15
2023-05-10T03:27:28.023Z,12.15
2023-05-10T03:28:27.974Z,12.14
2023-05-10T03:29:27.934Z,12.13
2023-05-10T03:30:27.916Z,12.14
2023-05-10T03:31:28.071Z,12.13
2023-05-10T03:32:27.969Z,12.14
2023-05-10T03:33:27.990Z,12.10
2023-05-10T03:34:27.907Z,12.11
2023-05-10T03:35:27.922Z,12.11
2023-05-10T03:36:27.857Z,12.11
2023-05-10T03:37:27.880Z,12.08
2023-05-10T03:38:30.258Z,12.10
2023-05-10T03:39:27.816Z,12.10
2023-05-10T03:40:27.877Z,12.10
2023-05-10T03:41:27.829Z,12.07
2023-05-10T03:42:27.876Z,12.07
2023-05-10T03:43:27.793Z,12.08
2023-05-10T03:44:27.830Z,12.04
2023-05-10T03:45:27.758Z,12.05
2023-05-10T03:46:27.820Z,12.10
2023-05-10T03:47:27.824Z,12.11
2023-05-10T03:48:27.732Z,12.10
2023-05-10T03:49:27.719Z,12.11
2023-05-10T03:50:27.764Z,12.11
2023-05-10T03:51:27.709Z,12.13
2023-05-10T03:52:27.811Z,12.14
2023-05-10T03:53:27.703Z,12.18
2023-05-10T03:54:27.689Z,12.18
2023-05-10T03:55:27.675Z,12.15
2023-05-10T03:56:27.635Z,12.15
2023-05-10T03:57:27.636Z,12.17
2023-05-10T03:58:27.657Z,12.14
2023-05-10T03:59:27.642Z,12.13
2023-05-10T04:00:27.596Z,12.13
2023-05-10T04:01:27.606Z,12.13
2023-05-10T04:02:27.734Z,12.14
2023-05-10T04:03:27.668Z,12.11
2023-05-10T04:04:27.567Z,12.10
2023-05-10T04:05:27.601Z,12.13
2023-05-10T04:06:27.574Z,12.13
2023-05-10T04:07:27.521Z,12.13
2023-05-10T04:08:27.536Z,12.14
2023-05-10T04:09:27.511Z,12.13
2023-05-10T04:10:27.522Z,12.11
2023-05-10T04:11:27.534Z,12.11
2023-05-10T04:12:27.470Z,12.11
2023-05-10T04:13:27.551Z,12.14
2023-05-10T04:14:27.440Z,12.14
2023-05-10T04:15:27.438Z,12.17
2023-05-10T04:16:27.497Z,12.23
2023-05-10T04:17:27.475Z,12.21
2023-05-10T04:18:27.448Z,12.21
2023-05-10T04:19:27.387Z,12.21
2023-05-10T04:20:27.383Z,12.18
2023-05-10T04:21:27.383Z,12.18
2023-05-10T04:22:27.377Z,12.22
2023-05-10T04:23:27.394Z,12.22
2023-05-10T04:24:27.343Z,12.21
2023-05-10T04:25:27.352Z,12.18
2023-05-10T04:26:27.328Z,12.21
2023-05-10T04:27:27.327Z,12.21
2023-05-10T04:28:27.323Z,12.23
2023-05-10T04:29:27.320Z,12.21
2023-05-10T04:30:27.313Z,12.22
2023-05-10T04:31:27.324Z,12.22
2023-05-10T04:32:27.334Z,12.21
2023-05-10T04:33:27.247Z,12.26
2023-05-10T04:34:27.257Z,12.25
2023-05-10T04:35:27.269Z,12.23
2023-05-10T04:36:27.228Z,12.25
2023-05-10T04:37:27.236Z,12.25
2023-05-10T04:38:27.261Z,12.25
2023-05-10T04:39:27.185Z,12.25
2023-05-10T04:40:27.193Z,12.26
2023-05-10T04:41:27.177Z,12.28
2023-05-10T04:42:27.150Z,12.26
2023-05-10T04:43:27.133Z,12.26
2023-05-10T04:44:27.158Z,12.26
2023-05-10T04:45:27.126Z,12.29
2023-05-10T04:46:27.154Z,12.29
2023-05-10T04:47:27.141Z,12.29
2023-05-10T04:48:27.174Z,12.29
2023-05-10T04:49:27.108Z,12.32
2023-05-10T04:50:27.065Z,12.32
2023-05-10T04:51:27.102Z,12.30
2023-05-10T04:52:27.071Z,12.32
2023-05-10T04:53:27.071Z,12.35
2023-05-10T04:54:27.055Z,12.35
2023-05-10T04:55:27.044Z,12.38
2023-05-10T04:56:27.078Z,12.38
2023-05-10T04:57:26.998Z,12.36
2023-05-10T04:58:27.122Z,12.36
2023-05-10T04:59:26.974Z,12.40
2023-05-10T05:00:26.983Z,12.40
2023-05-10T05:01:27.091Z,12.41
2023-05-10T05:02:27.006Z,12.40
2023-05-10T05:03:27.007Z,12.40
2023-05-10T05:04:26.943Z,12.38
2023-05-10T05:05:26.931Z,12.38
2023-05-10T05:06:27.013Z,12.40
2023-05-10T05:07:26.899Z,12.40
2023-05-10T05:08:27.012Z,12.40
2023-05-10T05:09:26.922Z,12.43
2023-05-10T05:10:26.885Z,12.41
2023-05-10T05:11:26.922Z,12.43
2023-05-10T05:12:26.866Z,12.41
2023-05-10T05:13:26.858Z,12.44
2023-05-10T05:14:26.862Z,12.47
2023-05-10T05:15:26.825Z,12.47
2023-05-10T05:16:26.887Z,12.46
2023-05-10T05:17:26.812Z,12.46
2023-05-10T05:18:26.813Z,12.46
2023-05-10T05:19:26.840Z,12.47
2023-05-10T05:20:26.770Z,12.47
2023-05-10T05:21:26.741Z,12.51
2023-05-10T05:22:26.767Z,12.54
2023-05-10T05:23:26.716Z,12.55
2023-05-10T05:24:26.750Z,12.54
2023-05-10T05:25:26.697Z,12.51
2023-05-10T05:26:26.682Z,12.53
2023-05-10T05:27:26.739Z,12.51
2023-05-10T05:28:26.671Z,12.50
2023-05-10T05:29:26.698Z,12.50
2023-05-10T05:30:27.632Z,12.47
2023-05-10T05:31:26.659Z,12.48
2023-05-10T05:32:26.701Z,12.47
2023-05-10T05:33:26.601Z,12.46
2023-05-10T05:34:26.679Z,12.46
2023-05-10T05:35:26.608Z,12.46
2023-05-10T05:36:26.587Z,12.46
2023-05-10T05:37:26.586Z,12.47
2023-05-10T05:38:26.583Z,12.44
2023-05-10T05:39:26.592Z,12.44
2023-05-10T05:40:26.544Z,12.46
2023-05-10T05:41:26.546Z,12.46
2023-05-10T05:42:26.582Z,12.46
2023-05-10T05:43:26.522Z,12.47
2023-05-10T05:44:26.524Z,12.50
2023-05-10T05:45:26.491Z,12.48
2023-05-10T05:46:26.562Z,12.51
2023-05-10T05:47:26.493Z,12.51
2023-05-10T05:48:26.474Z,12.53
2023-05-10T05:49:26.469Z,12.51
2023-05-10T05:50:26.453Z,12.51
2023-05-10T05:51:26.421Z,12.51
2023-05-10T05:52:26.473Z,12.50
2023-05-10T05:53:26.398Z,12.48
2023-05-10T05:54:26.396Z,12.48
2023-05-10T05:55:26.405Z,12.48
2023-05-10T05:56:26.389Z,12.50
2023-05-10T05:57:26.410Z,12.50
2023-05-10T05:58:26.355Z,12.50
2023-05-10T05:59:26.352Z,12.50
2023-05-10T06:00:26.372Z,12.48
2023-05-10T06:01:26.325Z,12.50
2023-05-10T06:02:26.411Z,12.51
2023-05-10T06:03:26.436Z,12.51
2023-05-10T06:04:26.442Z,12.54
2023-05-10T06:05:26.362Z,12.53
2023-05-10T06:06:26.292Z,12.58
2023-05-10T06:07:26.376Z,12.58
2023-05-10T06:08:26.271Z,12.59
2023-05-10T06:09:26.244Z,12.58
2023-05-10T06:10:26.271Z,12.59
2023-05-10T06:11:26.220Z,12.61
2023-05-10T06:12:26.231Z,12.61
2023-05-10T06:13:26.274Z,12.62
2023-05-10T06:14:26.213Z,12.63
2023-05-10T06:15:26.214Z,12.63
2023-05-10T06:16:26.194Z,12.66
2023-05-10T06:17:26.225Z,12.68
2023-05-10T06:18:26.202Z,12.69
2023-05-10T06:19:26.149Z,12.72
2023-05-10T06:20:26.201Z,12.76
2023-05-10T06:21:26.174Z,12.73
2023-05-10T06:22:26.213Z,12.73
2023-05-10T06:23:26.140Z,12.79
2023-05-10T06:24:26.080Z,12.81
2023-05-10T06:25:26.072Z,12.81
2023-05-10T06:26:26.085Z,12.86
2023-05-10T06:27:26.052Z,12.87
2023-05-10T06:28:26.046Z,12.88
2023-05-10T06:29:26.040Z,12.91
2023-05-10T06:30:26.062Z,12.93
2023-05-10T06:31:26.057Z,12.91
2023-05-10T06:32:26.016Z,12.90
2023-05-10T06:33:26.022Z,12.95
2023-05-10T06:34:25.980Z,12.93
2023-05-10T06:35:25.970Z,12.93
2023-05-10T06:36:25.996Z,12.93
2023-05-10T06:37:25.964Z,12.91
2023-05-10T06:38:25.958Z,12.91
2023-05-10T06:39:25.927Z,12.93
2023-05-10T06:40:25.934Z,12.91
2023-05-10T06:41:25.921Z,12.91
2023-05-10T06:42:25.888Z,12.95
2023-05-10T06:43:25.917Z,12.96
2023-05-10T06:44:25.871Z,12.95
2023-05-10T06:45:25.861Z,12.96
2023-05-10T06:46:25.917Z,12.98
2023-05-10T06:47:25.864Z,12.99
2023-05-10T06:48:25.829Z,13.04
2023-05-10T06:49:25.810Z,13.06
2023-05-10T06:50:25.907Z,13.09
2023-05-10T06:51:25.793Z,13.16
2023-05-10T06:52:25.781Z,13.17
2023-05-10T06:53:25.778Z,13.20
2023-05-10T06:54:25.779Z,13.20
2023-05-10T06:55:25.754Z,13.23
2023-05-10T06:56:25.766Z,13.24
2023-05-10T06:58:25.712Z,13.29
2023-05-10T06:59:25.778Z,13.30
2023-05-10T07:00:25.798Z,13.32
2023-05-10T07:01:25.798Z,13.32
2023-05-10T07:02:25.666Z,13.35
2023-05-10T07:03:25.663Z,13.32
2023-05-10T07:04:25.743Z,13.36
2023-05-10T07:05:25.639Z,13.36
2023-05-10T07:06:33.469Z,13.36
2023-05-10T07:07:25.634Z,13.35
2023-05-10T07:08:25.594Z,13.38
2023-05-10T07:09:25.598Z,13.42
2023-05-10T07:10:25.584Z,13.46
2023-05-10T07:11:25.591Z,13.49
2023-05-10T07:12:25.602Z,13.49
2023-05-10T07:13:25.671Z,13.47
2023-05-10T07:14:25.583Z,13.49
2023-05-10T07:15:25.525Z,13.49
2023-05-10T07:16:25.708Z,13.47
2023-05-10T07:17:25.607Z,13.46
2023-05-10T07:18:25.533Z,13.43
2023-05-10T07:19:25.514Z,13.42
2023-05-10T07:20:25.466Z,13.38
2023-05-10T07:21:25.529Z,13.32
2023-05-10T07:22:25.476Z,13.30
2023-05-10T07:23:25.446Z,13.26
2023-05-10T07:24:25.473Z,13.21
2023-05-10T07:25:25.459Z,13.23
2023-05-10T07:26:25.428Z,13.24
2023-05-10T07:27:25.440Z,13.21
2023-05-10T07:28:25.394Z,13.23
2023-05-10T07:29:25.405Z,13.26
2023-05-10T07:30:25.402Z,13.26
2023-05-10T07:31:25.381Z,13.29
2023-05-10T07:32:25.541Z,13.26
2023-05-10T07:33:25.311Z,13.29
2023-05-10T07:34:25.372Z,13.30
2023-05-10T07:35:25.340Z,13.32
2023-05-10T07:36:25.327Z,13.32
2023-05-10T07:37:25.364Z,13.30
2023-05-10T07:38:25.332Z,13.30
2023-05-10T07:39:27.777Z,13.29
2023-05-10T07:40:25.268Z,13.27
2023-05-10T07:41:25.287Z,13.27
2023-05-10T07:42:25.323Z,13.27
2023-05-10T07:43:25.251Z,13.30
2023-05-10T07:44:25.238Z,13.30
2023-05-10T07:45:25.234Z,13.30
2023-05-10T07:46:25.244Z,13.30
2023-05-10T07:47:25.233Z,13.30
2023-05-10T07:48:25.177Z,13.35
2023-05-10T07:49:25.207Z,13.36
2023-05-10T07:50:25.189Z,13.40
2023-05-10T07:51:25.125Z,13.43
2023-05-10T07:52:25.161Z,13.47
2023-05-10T07:53:25.133Z,13.49
2023-05-10T07:54:25.163Z,13.53
2023-05-10T07:55:25.132Z,13.54
2023-05-10T07:56:25.086Z,13.57
2023-05-10T07:57:25.065Z,13.60
2023-05-10T07:58:25.098Z,13.61
2023-05-10T07:59:25.052Z,13.63
2023-05-10T08:00:25.107Z,13.64
2023-05-10T08:01:25.032Z,13.65
2023-05-10T08:02:25.102Z,13.67
2023-05-10T08:03:25.078Z,13.67
2023-05-10T08:04:25.062Z,13.73
2023-05-10T08:05:25.019Z,13.78
2023-05-10T08:06:24.994Z,13.82
2023-05-10T08:07:24.969Z,13.86
2023-05-10T08:08:24.978Z,13.90
2023-05-10T08:09:25.380Z,13.94
2023-05-10T08:10:24.945Z,13.98
2023-05-10T08:11:24.973Z,14.04
2023-05-10T08:12:24.944Z,14.09
2023-05-10T08:13:24.936Z,14.16
2023-05-10T08:14:24.907Z,14.21
2023-05-10T08:15:24.882Z,14.28
2023-05-10T08:16:24.898Z,14.30
2023-05-10T08:17:24.952Z,14.31
2023-05-10T08:18:24.899Z,14.30
2023-05-10T08:19:24.853Z,14.33
2023-05-10T08:20:24.827Z,14.34
2023-05-10T08:21:24.822Z,14.40
2023-05-10T08:22:24.821Z,14.41
2023-05-10T08:23:24.869Z,14.45
2023-05-10T08:24:24.798Z,14.46
2023-05-10T08:25:24.829Z,14.52
2023-05-10T08:26:24.832Z,14.61
2023-05-10T08:27:24.753Z,14.64
2023-05-10T08:28:24.844Z,14.70
2023-05-10T08:29:26.623Z,14.69
2023-05-10T08:30:24.850Z,14.70
2023-05-10T08:31:24.786Z,14.67
2023-05-10T08:32:24.799Z,14.70
2023-05-10T08:33:25.149Z,14.71
2023-05-10T08:34:25.146Z,14.71
2023-05-10T08:35:24.695Z,14.78
2023-05-10T08:36:24.696Z,14.79
2023-05-10T08:37:24.691Z,14.82
2023-05-10T08:38:24.621Z,14.74
2023-05-10T08:39:30.331Z,14.71
2023-05-10T08:40:24.710Z,14.73
2023-05-10T08:41:24.675Z,14.74
2023-05-10T08:42:24.600Z,14.70
2023-05-10T08:43:24.602Z,14.66
2023-05-10T08:44:25.111Z,14.63
2023-05-10T08:45:24.551Z,14.64
2023-05-10T08:46:24.656Z,14.64
2023-05-10T08:47:24.584Z,14.58
2023-05-10T08:48:24.563Z,14.59
2023-05-10T08:49:24.562Z,14.64
2023-05-10T08:50:24.552Z,14.63
2023-05-10T08:51:24.599Z,14.64
2023-05-10T08:52:24.507Z,14.66
2023-05-10T08:53:24.492Z,14.67
2023-05-10T08:54:24.527Z,14.69
2023-05-10T08:55:24.473Z,14.66
2023-05-10T08:56:24.567Z,14.66
2023-05-10T08:57:24.456Z,14.66
2023-05-10T08:58:24.485Z,14.64
2023-05-10T08:59:24.503Z,14.63
2023-05-10T09:00:24.469Z,14.59
2023-05-10T09:01:24.614Z,14.61
2023-05-10T09:02:24.474Z,14.58
2023-05-10T09:03:24.442Z,14.56
2023-05-10T09:04:24.495Z,14.59
2023-05-10T09:05:24.414Z,14.59
2023-05-10T09:06:24.445Z,14.61
2023-05-10T09:07:24.358Z,14.59
2023-05-10T09:08:24.342Z,14.58
2023-05-10T09:09:24.382Z,14.55
2023-05-10T09:10:24.314Z,14.56
2023-05-10T09:11:24.300Z,14.58
2023-05-10T09:12:24.600Z,14.58
2023-05-10T09:13:24.337Z,14.58
2023-05-10T09:14:24.295Z,14.59
2023-05-10T09:15:24.241Z,14.61
2023-05-10T09:16:24.267Z,14.64
2023-05-10T09:17:24.333Z,14.67
2023-05-10T09:18:25.975Z,14.73
2023-05-10T09:19:24.264Z,14.73
2023-05-10T09:20:24.219Z,14.78
2023-05-10T09:21:24.239Z,14.79
2023-05-10T09:22:24.195Z,14.85
2023-05-10T09:23:24.192Z,14.87
2023-05-10T09:24:24.189Z,14.90
2023-05-10T09:25:24.140Z,14.95
2023-05-10T09:26:24.164Z,15.01
2023-05-10T09:27:24.168Z,15.10
2023-05-10T09:28:24.108Z,15.17
2023-05-10T09:29:24.275Z,15.26
2023-05-10T09:30:24.193Z,15.30
2023-05-10T09:31:24.187Z,15.38
2023-05-10T09:32:24.163Z,15.38
2023-05-10T09:33:24.073Z,15.40
2023-05-10T09:34:24.205Z,15.35
2023-05-10T09:36:24.125Z,15.27
2023-05-10T09:37:24.023Z,15.25
2023-05-10T09:38:23.994Z,15.20
2023-05-10T09:39:23.996Z,15.15
2023-05-10T09:40:24.010Z,15.14
2023-05-10T09:41:24.086Z,15.15
2023-05-10T09:42:23.989Z,15.20
2023-05-10T09:43:23.973Z,15.22
2023-05-10T09:44:23.979Z,15.23
2023-05-10T09:45:23.974Z,15.23
2023-05-10T09:46:24.203Z,15.25
2023-05-10T09:47:24.080Z,15.26
2023-05-10T09:48:23.947Z,15.29
2023-05-10T09:49:23.906Z,15.30
2023-05-10T09:50:23.865Z,15.33
2023-05-10T09:51:23.886Z,15.38
2023-05-10T09:52:23.848Z,15.41
2023-05-10T09:53:23.870Z,15.50
2023-05-10T09:54:23.849Z,15.62
2023-05-10T09:55:23.862Z,15.80
2023-05-10T09:56:23.799Z,15.98
2023-05-10T09:57:23.968Z,16.16
2023-05-10T09:58:23.858Z,16.46
2023-05-10T09:59:23.812Z,16.59
2023-05-10T10:00:23.868Z,16.70
2023-05-10T10:01:23.847Z,16.79
2023-05-10T10:02:23.811Z,16.79
2023-05-10T10:03:23.755Z,16.80
2023-05-10T10:04:23.770Z,16.82
2023-05-10T10:05:23.853Z,16.76
2023-05-10T10:06:29.878Z,16.70
2023-05-10T10:07:23.726Z,16.64
2023-05-10T10:08:23.711Z,16.62
2023-05-10T10:09:23.679Z,16.58
2023-05-10T10:10:23.680Z,16.52
2023-05-10T10:11:23.684Z,16.43
2023-05-10T10:12:23.666Z,16.36
2023-05-10T10:13:23.658Z,16.29
2023-05-10T10:14:23.694Z,16.18
2023-05-10T10:15:23.603Z,16.08
2023-05-10T10:16:23.673Z,15.95
2023-05-10T10:17:23.718Z,15.83
2023-05-10T10:18:23.668Z,15.68
2023-05-10T10:19:23.588Z,15.56
2023-05-10T10:20:23.726Z,15.47
2023-05-10T10:21:23.605Z,15.35
2023-05-10T10:22:23.615Z,15.23
2023-05-10T10:23:23.572Z,15.14
2023-05-10T10:24:23.517Z,15.17
2023-05-10T10:25:23.526Z,15.11
2023-05-10T10:26:23.527Z,15.08
2023-05-10T10:27:23.573Z,15.05
2023-05-10T10:28:24.023Z,15.03
2023-05-10T10:29:23.471Z,15.01
2023-05-10T10:30:23.508Z,15.01
2023-05-10T10:31:23.590Z,15.04
2023-05-10T10:32:23.493Z,15.05
2023-05-10T10:33:28.559Z,15.12
2023-05-10T10:34:23.425Z,15.15
2023-05-10T10:35:23.413Z,15.22
2023-05-10T10:36:23.413Z,15.26
2023-05-10T10:37:23.402Z,15.29
2023-05-10T10:38:23.372Z,15.30
2023-05-10T10:39:23.337Z,15.32
2023-05-10T10:40:23.353Z,15.30
2023-05-10T10:41:23.413Z,15.33
2023-05-10T10:42:23.324Z,15.35
2023-05-10T10:43:23.315Z,15.40
2023-05-10T10:44:23.421Z,15.40
2023-05-10T10:45:23.286Z,15.33
2023-05-10T10:46:23.337Z,15.30
2023-05-10T10:47:23.347Z,15.22
2023-05-10T10:48:23.268Z,15.14
2023-05-10T10:49:23.274Z,15.11
2023-05-10T10:50:23.213Z,15.04
2023-05-10T10:51:23.280Z,14.97
2023-05-10T10:52:23.202Z,14.95
2023-05-10T10:53:23.327Z,14.92
2023-05-10T10:54:23.303Z,14.92
2023-05-10T10:55:23.220Z,14.93
2023-05-10T10:56:23.155Z,14.96
2023-05-10T10:57:23.236Z,15.01
2023-05-10T10:58:23.147Z,15.05
2023-05-10T10:59:23.233Z,15.08
2023-05-10T11:00:23.177Z,15.12
2023-05-10T11:01:23.187Z,15.12
2023-05-10T11:02:23.235Z,15.11
2023-05-10T11:03:23.086Z,15.10
2023-05-10T11:04:23.253Z,15.12
2023-05-10T11:05:23.074Z,15.15
2023-05-10T11:06:23.061Z,15.20
2023-05-10T11:07:23.118Z,15.25
2023-05-10T11:08:23.059Z,15.33
2023-05-10T11:09:23.118Z,15.35
2023-05-10T11:10:23.024Z,15.38
2023-05-10T11:11:23.021Z,15.36
2023-05-10T11:12:23.015Z,15.45
2023-05-10T11:13:22.994Z,15.50
2023-05-10T11:14:23.044Z,15.59
2023-05-10T11:15:22.969Z,15.66
2023-05-10T11:16:22.964Z,15.73
2023-05-10T11:17:23.036Z,15.83
2023-05-10T11:18:22.991Z,15.84
2023-05-10T11:19:22.921Z,15.91
2023-05-10T11:20:22.970Z,15.88
2023-05-10T11:21:22.899Z,15.93
2023-05-10T11:22:22.916Z,15.96
2023-05-10T11:23:22.876Z,16.02
2023-05-10T11:24:22.864Z,16.10
2023-05-10T11:25:22.855Z,16.10
2023-05-10T11:26:22.922Z,16.14
2023-05-10T11:27:23.247Z,16.18
2023-05-10T11:28:22.897Z,16.24
2023-05-10T11:29:22.894Z,16.26
2023-05-10T11:30:22.797Z,16.26
2023-05-10T11:31:22.960Z,16.24
2023-05-10T11:32:22.869Z,16.22
2023-05-10T11:33:22.786Z,16.17
2023-05-10T11:34:22.755Z,16.16
2023-05-10T11:35:22.777Z,16.14
2023-05-10T11:36:22.742Z,16.14
2023-05-10T11:37:22.762Z,16.13
2023-05-10T11:38:22.778Z,16.13
2023-05-10T11:39:22.721Z,16.08
2023-05-10T11:40:22.737Z,16.05
2023-05-10T11:41:22.726Z,16.06
2023-05-10T11:42:22.732Z,16.10
2023-05-10T11:43:22.672Z,16.16
2023-05-10T11:44:22.691Z,16.16
2023-05-10T11:45:22.705Z,16.25
2023-05-10T11:46:22.664Z,16.28
2023-05-10T11:47:22.914Z,16.36
2023-05-10T11:48:22.630Z,16.43
2023-05-10T11:49:22.602Z,16.44
2023-05-10T11:50:22.647Z,16.46
2023-05-10T11:51:22.593Z,16.46
2023-05-10T11:52:22.592Z,16.43
2023-05-10T11:53:24.742Z,16.40
2023-05-10T11:54:22.578Z,16.37
2023-05-10T11:55:22.603Z,16.34
2023-05-10T11:56:22.540Z,16.25
2023-05-10T11:57:22.523Z,16.22
2023-05-10T11:58:22.529Z,16.18
2023-05-10T11:59:22.511Z,16.10
2023-05-10T12:00:22.595Z,16.10
2023-05-10T12:01:22.500Z,16.02
2023-05-10T12:02:22.557Z,15.95
2023-05-10T12:03:22.578Z,15.85
2023-05-10T12:04:22.588Z,15.77
2023-05-10T12:05:22.501Z,15.69
2023-05-10T12:06:22.463Z,15.66
2023-05-10T12:07:22.438Z,15.62
2023-05-10T12:08:22.424Z,15.59
2023-05-10T12:09:35.543Z,15.58
2023-05-10T12:10:22.366Z,15.60
2023-05-10T12:11:22.396Z,15.62
2023-05-10T12:12:22.437Z,15.66
2023-05-10T12:13:22.412Z,15.68
2023-05-10T12:14:22.328Z,15.73
2023-05-10T12:15:22.332Z,15.80
2023-05-10T12:16:22.392Z,15.87
2023-05-10T12:17:22.363Z,15.93
2023-05-10T12:18:22.417Z,16.00
2023-05-10T12:19:22.309Z,16.14
2023-05-10T12:20:22.289Z,16.28
2023-05-10T12:21:22.300Z,16.40
2023-05-10T12:22:22.266Z,16.54
2023-05-10T12:23:22.272Z,16.73
2023-05-10T12:24:22.244Z,16.91
2023-05-10T12:25:22.254Z,17.06
2023-05-10T12:26:22.256Z,17.19
2023-05-10T12:27:22.204Z,17.28
2023-05-10T12:28:22.200Z,17.32
2023-05-10T12:29:22.197Z,17.41
2023-05-10T12:30:22.165Z,17.75
2023-05-10T12:31:22.213Z,17.91
2023-05-10T12:32:22.156Z,17.87
2023-05-10T12:33:22.142Z,17.78
2023-05-10T12:34:22.142Z,17.72
2023-05-10T12:35:22.144Z,17.73
2023-05-10T12:36:22.189Z,17.96
2023-05-10T12:37:22.087Z,18.27
2023-05-10T12:38:22.115Z,18.52
2023-05-10T12:39:22.104Z,18.74
2023-05-10T12:40:22.074Z,19.00
2023-05-10T12:41:22.239Z,19.17
2023-05-10T12:42:22.064Z,19.13
2023-05-10T12:43:22.066Z,19.15
2023-05-10T12:44:22.064Z,19.20
2023-05-10T12:45:22.048Z,19.27
2023-05-10T12:46:22.180Z,19.37
2023-05-10T12:47:22.022Z,19.39
2023-05-10T12:48:22.022Z,19.30
2023-05-10T12:49:22.014Z,19.24
2023-05-10T12:50:21.943Z,19.19
2023-05-10T12:51:21.978Z,19.04
2023-05-10T12:52:21.940Z,18.89
2023-05-10T12:53:22.048Z,18.86
2023-05-10T12:54:21.944Z,18.79